Terminal Aerodrome Forecast
Issued by NWS Sioux Falls, SD

Home | Current Version | Previous Version | Text Only | Print | Product List | Glossary Off
Versions: 1 2 3 4 5 6 7 8 9 10 11 12 13

000
FTUS43 KFSD 252045 AAA
TAFHON
TAF AMD
KHON 252045Z 2521/2618 21009KT P6SM SCT050 BKN100
     FM252200 20005KT P6SM SCT035 BKN050
     FM260900 24006KT P6SM BKN070
     FM261000 28007KT P6SM BKN100=

USA.gov is the U.S. government's official web portal to all federal, state and local government web resources and services.